Time;durP1;ratioP1;P1;durP2;ratioP2;P2;SDS_P1;SDS_P2;PMS_P1;PMS_P2;Temp;Humidity;BMP_temperature;BMP_pressure;BME280_temperature;BME280_humidity;BME280_pressure;Samples;Min_cycle;Max_cycle;Signal;HPM_P1;HPM_P2
2023/12/19 00:00:26;;;;;;;6.60;5.20;;;16.00;44.10;;;;;;5171573;27;45376;-65
2023/12/19 00:02:52;;;;;;;5.63;4.75;;;15.90;44.10;;;;;;5171794;27;45204;-65
2023/12/19 00:05:21;;;;;;;7.75;4.97;;;15.90;44.10;;;;;;5171731;27;45271;-65
2023/12/19 00:07:47;;;;;;;5.97;4.68;;;15.80;44.10;;;;;;5171512;27;47389;-66
2023/12/19 00:10:14;;;;;;;9.27;5.85;;;15.80;44.20;;;;;;5171351;27;45310;-65
2023/12/19 00:12:41;;;;;;;6.55;4.60;;;15.80;44.20;;;;;;5171552;27;45376;-65
2023/12/19 00:15:09;;;;;;;6.32;4.82;;;15.70;44.30;;;;;;5171460;27;45197;-65
2023/12/19 00:17:36;;;;;;;6.40;4.88;;;15.70;44.30;;;;;;5171152;27;46582;-65
2023/12/19 00:20:03;;;;;;;6.97;4.72;;;15.70;44.40;;;;;;5171585;27;45395;-65
2023/12/19 00:22:31;;;;;;;6.50;4.75;;;15.60;44.30;;;;;;5171359;27;45315;-65
2023/12/19 00:24:58;;;;;;;5.55;4.40;;;15.60;44.40;;;;;;5171658;27;45173;-65
2023/12/19 00:27:25;;;;;;;7.43;4.63;;;15.60;44.40;;;;;;5171030;27;46370;-65
2023/12/19 00:29:52;;;;;;;7.07;4.78;;;15.50;44.40;;;;;;5170885;27;45320;-65
2023/12/19 00:32:18;;;;;;;6.80;4.30;;;15.50;44.40;;;;;;5171144;27;45287;-65
2023/12/19 00:34:45;;;;;;;5.15;4.18;;;15.50;44.50;;;;;;5171130;27;45239;-65
2023/12/19 00:37:13;;;;;;;6.85;4.85;;;15.50;44.60;;;;;;5170674;27;46386;-65
2023/12/19 00:39:41;;;;;;;4.97;4.03;;;15.40;44.60;;;;;;5170299;27;45227;-65
2023/12/19 00:42:09;;;;;;;5.30;4.55;;;15.40;44.60;;;;;;5170990;27;45641;-65
2023/12/19 00:44:37;;;;;;;5.10;4.32;;;15.40;44.60;;;;;;5170996;27;45277;-65
2023/12/19 00:47:04;;;;;;;5.70;3.97;;;15.30;44.60;;;;;;5170458;27;46738;-64
2023/12/19 00:49:31;;;;;;;4.78;3.95;;;15.30;44.60;;;;;;5168299;27;45247;-65
2023/12/19 00:51:57;;;;;;;6.55;4.35;;;15.30;44.70;;;;;;5170907;27;45346;-65
2023/12/19 00:54:24;;;;;;;6.13;4.60;;;15.20;44.70;;;;;;5170964;27;45279;-65
2023/12/19 00:56:52;;;;;;;5.95;4.32;;;15.30;45.40;;;;;;5170389;27;46768;-65
2023/12/19 00:59:20;;;;;;;4.60;4.20;;;15.20;44.80;;;;;;5170403;27;45699;-65
2023/12/19 01:01:47;;;;;;;5.03;4.53;;;15.20;44.70;;;;;;5170568;27;45200;-65
2023/12/19 01:04:16;;;;;;;5.00;4.50;;;15.10;44.80;;;;;;5170862;27;45421;-65
2023/12/19 01:06:43;;;;;;;5.72;4.22;;;15.10;44.80;;;;;;5170340;27;46671;-65
2023/12/19 01:09:10;;;;;;;5.50;4.20;;;15.10;44.90;;;;;;5170183;27;45231;-65
2023/12/19 01:11:37;;;;;;;5.47;4.38;;;15.00;44.80;;;;;;5170403;27;45243;-65
2023/12/19 01:14:06;;;;;;;4.32;3.92;;;15.00;44.90;;;;;;5161477;27;45177;-65
2023/12/19 01:16:32;;;;;;;4.78;3.38;;;15.00;45.60;;;;;;5149283;27;46568;-65
2023/12/19 01:19:00;;;;;;;5.28;4.13;;;15.00;44.90;;;;;;5149045;27;45373;-65
2023/12/19 01:21:27;;;;;;;5.05;4.05;;;14.90;44.90;;;;;;5149183;27;45305;-65
2023/12/19 01:23:54;;;;;;;4.45;3.53;;;14.90;44.90;;;;;;5170556;27;45206;-64
2023/12/19 01:26:21;;;;;;;4.22;3.45;;;14.90;45.00;;;;;;5169996;27;45346;-65
2023/12/19 01:28:48;;;;;;;3.53;3.22;;;14.90;45.00;;;;;;5169771;27;45370;-65
2023/12/19 01:31:16;;;;;;;4.18;3.60;;;14.90;45.00;;;;;;5169981;27;45266;-65
2023/12/19 01:33:43;;;;;;;4.78;4.15;;;14.80;45.00;;;;;;5170087;27;45266;-65
2023/12/19 01:36:10;;;;;;;6.05;3.97;;;14.80;45.00;;;;;;5169806;27;46312;-65
2023/12/19 01:38:37;;;;;;;3.35;2.97;;;14.80;45.00;;;;;;5169544;27;45351;-65
2023/12/19 01:41:04;;;;;;;3.83;3.45;;;14.70;45.00;;;;;;5169850;27;45312;-65
2023/12/19 01:43:31;;;;;;;4.40;3.50;;;14.70;45.00;;;;;;5169991;27;45229;-65
2023/12/19 01:45:58;;;;;;;4.10;3.25;;;14.70;45.10;;;;;;5169513;27;45195;-65
2023/12/19 01:48:26;;;;;;;3.72;3.42;;;14.70;45.10;;;;;;5169770;27;45595;-65
2023/12/19 01:50:53;;;;;;;3.95;2.85;;;14.60;45.10;;;;;;5155960;27;45235;-65
2023/12/19 01:53:18;;;;;;;3.33;2.80;;;14.60;45.10;;;;;;5149176;27;45435;-65
2023/12/19 01:55:45;;;;;;;4.70;3.05;;;14.60;45.10;;;;;;5148575;27;47936;-65
2023/12/19 01:58:12;;;;;;;3.08;2.78;;;14.60;45.10;;;;;;5148540;27;45267;-65
2023/12/19 02:00:39;;;;;;;3.00;2.70;;;14.60;45.10;;;;;;5148109;27;45244;-65
2023/12/19 02:03:06;;;;;;;3.08;2.63;;;14.50;45.10;;;;;;5148566;27;45581;-65
2023/12/19 02:05:34;;;;;;;3.60;3.25;;;14.50;45.10;;;;;;5148291;27;45403;-65
2023/12/19 02:08:01;;;;;;;3.28;2.80;;;14.50;45.10;;;;;;5148243;27;45249;-65
2023/12/19 02:10:28;;;;;;;3.55;3.20;;;14.50;45.10;;;;;;5148422;27;45258;-65
2023/12/19 02:12:55;;;;;;;4.93;3.10;;;14.40;45.10;;;;;;5148824;27;45369;-65
2023/12/19 02:15:21;;;;;;;3.45;2.85;;;14.40;45.20;;;;;;5148231;27;46676;-65
2023/12/19 02:17:48;;;;;;;2.90;2.60;;;14.40;45.20;;;;;;5148236;27;45377;-65
2023/12/19 02:20:15;;;;;;;3.30;2.85;;;14.40;45.20;;;;;;5148535;27;45199;-65
2023/12/19 02:22:43;;;;;;;2.40;2.20;;;14.40;45.20;;;;;;5159463;27;45452;-65
2023/12/19 02:25:11;;;;;;;4.70;3.42;;;14.30;45.20;;;;;;5169278;27;46156;-65
2023/12/19 02:27:39;;;;;;;3.17;2.88;;;14.30;45.20;;;;;;5169961;27;45334;-65
2023/12/19 02:30:08;;;;;;;3.17;2.88;;;14.30;45.30;;;;;;5169640;27;45267;-65
2023/12/19 02:32:35;;;;;;;3.42;2.80;;;14.20;45.30;;;;;;5169833;27;45258;-64
2023/12/19 02:35:02;;;;;;;3.15;2.85;;;14.20;45.30;;;;;;5169492;27;46665;-65
2023/12/19 02:37:29;;;;;;;3.10;2.80;;;14.20;45.40;;;;;;5169460;27;45263;-64
2023/12/19 02:39:56;;;;;;;2.63;2.40;;;14.10;45.40;;;;;;5169152;27;45329;-64
2023/12/19 02:42:24;;;;;;;2.78;2.58;;;14.10;45.40;;;;;;5169488;27;45187;-64
2023/12/19 02:44:51;;;;;;;3.08;2.40;;;14.10;45.40;;;;;;5168781;27;46395;-64
2023/12/19 02:47:17;;;;;;;3.15;2.72;;;14.10;45.40;;;;;;5169087;27;45328;-64
2023/12/19 02:49:44;;;;;;;3.10;2.75;;;14.00;45.40;;;;;;5165656;27;45432;-65
2023/12/19 02:52:11;;;;;;;3.05;2.60;;;14.00;45.40;;;;;;5148626;27;45285;-64
2023/12/19 02:54:38;;;;;;;3.63;2.95;;;14.00;46.00;;;;;;5148124;27;45532;-65
2023/12/19 02:57:05;;;;;;;3.13;2.83;;;14.00;45.50;;;;;;5148474;27;45612;-65
2023/12/19 02:59:33;;;;;;;2.55;2.35;;;13.90;45.40;;;;;;5148734;27;45234;-64
2023/12/19 03:02:00;;;;;;;2.47;2.28;;;13.90;45.50;;;;;;5148264;27;45300;-65
2023/12/19 03:04:27;;;;;;;3.03;2.70;;;13.90;45.60;;;;;;5148109;27;45210;-65
2023/12/19 03:06:54;;;;;;;3.20;2.55;;;13.90;45.50;;;;;;5147753;27;45139;-64
2023/12/19 03:09:20;;;;;;;2.60;2.40;;;13.90;45.50;;;;;;5148000;27;45317;-65
2023/12/19 03:11:59;;;;;;;2.42;2.22;;;13.80;45.50;;;;;;5148645;27;45403;-65
2023/12/19 03:14:26;;;;;;;4.10;2.58;;;13.80;45.60;;;;;;5151616;27;46467;-65
2023/12/19 03:16:54;;;;;;;3.22;2.72;;;13.80;45.60;;;;;;5151576;27;45220;-64
2023/12/19 03:19:21;;;;;;;2.75;2.55;;;13.80;45.60;;;;;;5151268;27;45187;-64
2023/12/19 03:21:47;;;;;;;2.75;2.47;;;13.80;45.60;;;;;;5154552;27;45393;-65
2023/12/19 03:24:14;;;;;;;2.35;2.10;;;13.70;45.60;;;;;;5172646;27;45296;-65
2023/12/19 03:26:41;;;;;;;2.78;2.20;;;13.70;45.60;;;;;;5172259;27;45205;-65
2023/12/19 03:29:08;;;;;;;2.63;2.30;;;13.70;45.70;;;;;;5172046;27;45202;-65
2023/12/19 03:31:36;;;;;;;3.05;2.50;;;13.70;45.60;;;;;;5172564;27;45456;-65
2023/12/19 03:34:05;;;;;;;2.47;2.28;;;13.60;45.60;;;;;;5172151;27;45727;-63
2023/12/19 03:36:32;;;;;;;2.75;2.28;;;13.60;45.60;;;;;;5172448;27;45248;-63
2023/12/19 03:38:58;;;;;;;2.65;2.38;;;13.60;45.70;;;;;;5171999;27;45221;-65
2023/12/19 03:41:25;;;;;;;2.47;2.28;;;13.60;45.70;;;;;;5172456;27;45237;-65
2023/12/19 03:43:52;;;;;;;2.28;2.05;;;13.60;45.70;;;;;;5172039;27;45388;-65
2023/12/19 03:46:19;;;;;;;2.17;1.83;;;13.60;45.70;;;;;;5172063;27;45308;-65
2023/12/19 03:48:46;;;;;;;3.05;2.20;;;13.50;45.70;;;;;;5171969;27;45285;-63
2023/12/19 03:51:14;;;;;;;2.22;2.03;;;13.50;45.70;;;;;;5172292;27;45297;-64
2023/12/19 03:53:41;;;;;;;2.42;2.22;;;13.50;45.70;;;;;;5169161;27;46132;-65
2023/12/19 03:56:08;;;;;;;2.03;1.92;;;13.50;45.80;;;;;;5171762;27;45298;-65
2023/12/19 03:58:35;;;;;;;2.67;2.45;;;13.50;45.80;;;;;;5172091;27;45285;-65
2023/12/19 04:01:02;;;;;;;3.08;2.13;;;13.40;45.70;;;;;;5172145;27;45542;-65
2023/12/19 04:03:28;;;;;;;2.40;1.85;;;13.40;45.70;;;;;;5171606;27;47567;-65
2023/12/19 04:05:55;;;;;;;2.75;2.40;;;13.40;45.80;;;;;;5171799;27;45210;-65
2023/12/19 04:08:23;;;;;;;2.28;2.08;;;13.40;45.80;;;;;;5172031;27;45404;-65
2023/12/19 04:10:50;;;;;;;2.63;2.10;;;13.40;45.80;;;;;;5171624;27;45336;-65
2023/12/19 04:13:17;;;;;;;1.88;1.77;;;13.40;45.80;;;;;;5171323;27;46389;-65
2023/12/19 04:15:44;;;;;;;1.92;1.70;;;13.50;45.70;;;;;;5171806;27;45244;-65
2023/12/19 04:18:14;;;;;;;2.88;2.30;;;13.60;45.50;;;;;;5171780;27;45281;-65
2023/12/19 04:20:40;;;;;;;2.47;2.28;;;13.70;45.40;;;;;;5171947;27;45314;-65
2023/12/19 04:23:07;;;;;;;2.40;2.20;;;13.80;45.10;;;;;;5170867;27;45517;-65
2023/12/19 04:25:36;;;;;;;2.15;1.95;;;13.90;45.00;;;;;;5171426;27;45190;-65
2023/12/19 04:28:02;;;;;;;2.10;1.90;;;14.00;45.30;;;;;;5158115;27;45435;-65
2023/12/19 04:30:29;;;;;;;2.08;1.83;;;14.10;44.60;;;;;;5150720;27;45372;-65
2023/12/19 04:32:56;;;;;;;1.70;1.60;;;14.20;44.40;;;;;;5150285;27;45458;-65
2023/12/19 04:35:23;;;;;;;1.75;1.65;;;14.30;44.20;;;;;;5150206;27;45289;-65
2023/12/19 04:37:50;;;;;;;2.50;1.80;;;14.50;44.00;;;;;;5150522;27;45209;-65
2023/12/19 04:40:17;;;;;;;1.48;1.38;;;14.60;43.70;;;;;;5130725;27;45208;-65
2023/12/19 04:42:45;;;;;;;1.48;1.38;;;14.80;43.50;;;;;;5129059;27;45430;-65
2023/12/19 04:45:12;;;;;;;1.50;1.40;;;14.90;43.20;;;;;;5129414;27;45309;-65
2023/12/19 04:47:39;;;;;;;1.48;1.38;;;15.00;43.00;;;;;;5129388;27;45279;-64
2023/12/19 04:50:08;;;;;;;1.88;1.60;;;15.20;42.80;;;;;;5129594;27;45292;-66
2023/12/19 04:52:35;;;;;;;1.55;1.45;;;15.30;43.20;;;;;;5128852;27;46244;-63
2023/12/19 04:55:02;;;;;;;2.33;1.45;;;15.50;42.30;;;;;;5128544;27;45307;-66
2023/12/19 04:57:29;;;;;;;1.40;1.30;;;15.60;42.00;;;;;;5129416;27;45251;-64
2023/12/19 04:59:57;;;;;;;1.33;1.23;;;15.80;41.80;;;;;;5129218;27;45390;-66
2023/12/19 05:02:24;;;;;;;1.80;1.30;;;15.90;41.50;;;;;;5129288;27;45437;-64
2023/12/19 05:04:51;;;;;;;1.40;1.13;;;16.10;41.30;;;;;;5148283;27;45362;-66
2023/12/19 05:07:18;;;;;;;1.67;1.48;;;16.20;41.20;;;;;;5149654;27;45316;-64
2023/12/19 05:09:45;;;;;;;1.48;1.20;;;16.30;41.00;;;;;;5150300;27;45306;-64
2023/12/19 05:12:12;;;;;;;1.30;1.10;;;16.40;40.80;;;;;;5149529;27;47292;-63
2023/12/19 05:14:39;;;;;;;1.25;1.15;;;16.50;40.60;;;;;;5149536;27;45209;-63
2023/12/19 05:17:07;;;;;;;1.40;1.10;;;16.60;40.50;;;;;;5149739;27;45502;-64
2023/12/19 05:19:34;;;;;;;1.30;1.20;;;16.70;40.40;;;;;;5149869;27;45186;-65
2023/12/19 05:22:00;;;;;;;1.63;1.40;;;16.80;40.20;;;;;;5149158;27;45217;-64
2023/12/19 05:24:32;;;;;;;1.30;1.17;;;16.90;40.10;;;;;;5149505;27;45435;-64
2023/12/19 05:26:59;;;;;;;1.92;1.02;;;16.90;39.90;;;;;;5150002;27;45146;-64
2023/12/19 05:29:26;;;;;;;1.00;1.00;;;17.00;39.80;;;;;;5149696;27;45549;-64
2023/12/19 05:31:53;;;;;;;1.63;1.15;;;17.10;39.70;;;;;;5149335;27;45299;-64
2023/12/19 05:34:22;;;;;;;1.35;1.25;;;17.10;39.50;;;;;;5148511;27;45330;-66
2023/12/19 05:36:49;;;;;;;1.48;1.10;;;17.20;39.40;;;;;;5149620;27;45319;-64
2023/12/19 05:39:17;;;;;;;1.45;1.05;;;17.30;39.20;;;;;;5148923;27;45263;-66
2023/12/19 05:41:44;;;;;;;1.63;1.23;;;17.40;39.20;;;;;;5149033;27;45318;-65
2023/12/19 05:44:11;;;;;;;1.08;1.08;;;17.40;39.10;;;;;;5149113;27;45448;-66
2023/12/19 05:46:39;;;;;;;1.20;1.10;;;17.50;39.00;;;;;;5149299;27;45258;-66
2023/12/19 05:49:05;;;;;;;1.85;1.17;;;17.50;38.90;;;;;;5149317;27;45171;-65
2023/12/19 05:51:34;;;;;;;1.05;0.88;;;17.60;38.90;;;;;;5148840;27;45466;-66
2023/12/19 05:54:01;;;;;;;1.10;1.00;;;17.60;38.80;;;;;;5149237;27;45422;-65
2023/12/19 05:56:28;;;;;;;1.70;0.95;;;17.70;38.80;;;;;;5149345;27;45321;-65
2023/12/19 05:58:56;;;;;;;1.55;1.00;;;17.70;38.60;;;;;;5149410;27;45258;-65
2023/12/19 06:01:22;;;;;;;1.50;1.40;;;17.70;38.60;;;;;;5148696;27;47350;-65
2023/12/19 06:03:49;;;;;;;1.83;0.90;;;17.80;38.50;;;;;;5159199;27;45239;-65
2023/12/19 06:06:16;;;;;;;1.25;1.00;;;17.90;38.40;;;;;;5170054;27;45421;-65
2023/12/19 06:08:44;;;;;;;1.15;1.05;;;17.90;38.30;;;;;;5170615;27;45317;-66
2023/12/19 06:11:11;;;;;;;1.00;0.95;;;18.00;38.30;;;;;;5170281;27;47393;-66
2023/12/19 06:13:38;;;;;;;0.98;0.90;;;18.00;38.20;;;;;;5170059;27;45588;-64
2023/12/19 06:16:06;;;;;;;1.25;1.13;;;18.00;38.10;;;;;;5170180;27;45369;-64
2023/12/19 06:18:33;;;;;;;1.33;1.00;;;18.10;38.10;;;;;;5170151;27;45292;-65
2023/12/19 06:21:00;;;;;;;1.20;1.10;;;18.10;38.00;;;;;;5169146;27;46468;-64
2023/12/19 06:23:27;;;;;;;1.30;1.20;;;18.20;37.90;;;;;;5166824;27;45308;-65
2023/12/19 06:25:55;;;;;;;1.10;1.00;;;18.20;37.80;;;;;;5170072;27;45350;-66
2023/12/19 06:28:22;;;;;;;1.30;1.20;;;18.30;37.80;;;;;;5169969;27;45435;-64
2023/12/19 06:30:50;;;;;;;1.60;1.20;;;18.30;37.70;;;;;;5169740;27;45253;-65
2023/12/19 06:33:17;;;;;;;1.00;0.90;;;18.30;37.60;;;;;;5169578;27;45178;-65
2023/12/19 06:35:44;;;;;;;1.10;1.02;;;18.40;37.60;;;;;;5170217;27;45332;-66
2023/12/19 06:38:11;;;;;;;1.25;1.15;;;18.40;37.50;;;;;;5169919;27;45521;-66
2023/12/19 06:40:38;;;;;;;0.95;0.95;;;18.40;38.10;;;;;;5169406;27;46311;-65
2023/12/19 06:43:10;;;;;;;1.48;1.00;;;18.40;37.50;;;;;;5169546;27;45311;-66
2023/12/19 06:45:37;;;;;;;1.35;1.25;;;18.50;37.40;;;;;;5170059;27;45367;-64
2023/12/19 06:48:04;;;;;;;1.45;1.10;;;18.50;37.40;;;;;;5173965;27;45284;-65
2023/12/19 06:50:31;;;;;;;1.38;1.17;;;18.60;37.40;;;;;;5173002;27;46254;-64
2023/12/19 06:52:58;;;;;;;1.60;1.20;;;18.60;37.30;;;;;;5173076;27;45294;-66
2023/12/19 06:55:25;;;;;;;1.83;1.52;;;18.60;37.20;;;;;;5173441;27;45218;-64
2023/12/19 06:57:52;;;;;;;1.42;1.33;;;18.60;37.10;;;;;;5173405;27;45322;-64
2023/12/19 07:00:21;;;;;;;2.28;1.70;;;18.70;37.10;;;;;;5173000;27;45443;-64
2023/12/19 07:02:48;;;;;;;1.27;1.17;;;18.70;37.10;;;;;;5171127;27;45321;-65
2023/12/19 07:05:15;;;;;;;1.73;1.23;;;18.70;37.00;;;;;;5152244;27;45375;-65
2023/12/19 07:07:42;;;;;;;1.50;1.40;;;18.80;36.90;;;;;;5149233;27;45326;-65
2023/12/19 07:10:09;;;;;;;1.45;1.30;;;18.80;36.90;;;;;;5151515;27;46376;-65
2023/12/19 07:12:37;;;;;;;1.92;1.17;;;18.80;36.90;;;;;;5151622;27;46071;-64
2023/12/19 07:15:06;;;;;;;2.08;1.73;;;18.80;36.80;;;;;;5151968;27;45314;-65
2023/12/19 07:17:34;;;;;;;1.67;1.48;;;18.90;36.80;;;;;;5151984;27;45285;-65
2023/12/19 07:20:01;;;;;;;2.10;1.20;;;18.90;36.80;;;;;;5151559;27;46698;-66
2023/12/19 07:22:27;;;;;;;1.48;1.38;;;18.90;36.80;;;;;;5151321;27;45279;-66
2023/12/19 07:24:55;;;;;;;1.83;1.48;;;18.90;36.70;;;;;;5149381;27;45330;-65
2023/12/19 07:27:22;;;;;;;2.65;1.50;;;18.90;36.70;;;;;;5152085;27;45236;-65
2023/12/19 07:29:48;;;;;;;2.70;1.60;;;18.90;36.60;;;;;;5151624;27;45456;-65
2023/12/19 07:32:15;;;;;;;1.52;1.30;;;19.00;36.60;;;;;;5151444;27;45282;-65
2023/12/19 07:34:43;;;;;;;1.30;1.20;;;18.90;36.60;;;;;;5151305;27;45259;-64
2023/12/19 07:37:10;;;;;;;1.60;1.50;;;18.90;36.70;;;;;;5151570;27;45411;-65
2023/12/19 07:39:37;;;;;;;2.42;1.42;;;18.90;36.80;;;;;;5157028;27;45399;-65
2023/12/19 07:42:05;;;;;;;1.33;1.27;;;18.80;36.70;;;;;;5172434;27;45245;-65
2023/12/19 07:44:31;;;;;;;1.40;1.30;;;18.80;36.80;;;;;;5169686;27;45264;-65
2023/12/19 07:46:59;;;;;;;2.15;1.55;;;18.70;37.00;;;;;;5172759;27;45264;-65
2023/12/19 07:49:26;;;;;;;1.70;1.35;;;18.70;37.00;;;;;;5170661;27;46696;-64
2023/12/19 07:51:54;;;;;;;1.77;1.60;;;18.60;37.10;;;;;;5158662;27;45388;-65
2023/12/19 07:54:21;;;;;;;1.30;1.20;;;18.50;37.20;;;;;;5172132;27;45324;-64
2023/12/19 07:56:48;;;;;;;1.83;1.48;;;18.40;37.30;;;;;;5172490;27;45464;-65
2023/12/19 07:59:14;;;;;;;2.45;1.60;;;18.40;37.50;;;;;;5171395;27;45427;-65
2023/12/19 08:01:42;;;;;;;3.38;1.20;;;18.30;37.60;;;;;;5158415;27;45402;-66
2023/12/19 08:04:09;;;;;;;2.00;1.70;;;18.30;37.70;;;;;;5162234;27;45438;-67
2023/12/19 08:06:36;;;;;;;1.70;1.45;;;18.20;37.80;;;;;;5157301;27;45236;-65
2023/12/19 08:09:05;;;;;;;1.15;1.05;;;18.10;37.90;;;;;;5150893;27;46490;-65
2023/12/19 08:11:32;;;;;;;1.95;1.50;;;18.10;38.00;;;;;;5166965;27;45396;-66
2023/12/19 08:13:59;;;;;;;1.67;1.50;;;18.00;38.10;;;;;;5172836;27;45434;-65
2023/12/19 08:16:26;;;;;;;1.38;1.20;;;18.00;38.20;;;;;;5172243;27;45121;-66
2023/12/19 08:18:52;;;;;;;2.03;1.52;;;18.00;38.20;;;;;;5169210;27;46427;-66
2023/12/19 08:21:19;;;;;;;1.90;1.70;;;18.00;38.20;;;;;;5171398;27;45600;-65
2023/12/19 08:23:48;;;;;;;1.92;1.20;;;18.00;38.30;;;;;;5151142;27;45285;-66
2023/12/19 08:26:16;;;;;;;2.03;1.50;;;18.10;38.20;;;;;;5150365;27;45248;-64
2023/12/19 08:28:42;;;;;;;1.92;1.45;;;18.20;38.00;;;;;;5149708;27;45205;-64
2023/12/19 08:31:08;;;;;;;1.70;1.60;;;18.30;37.80;;;;;;5150141;27;45207;-65
2023/12/19 08:33:36;;;;;;;2.53;1.80;;;18.40;37.70;;;;;;5150400;27;45471;-65
2023/12/19 08:36:03;;;;;;;1.83;1.52;;;18.50;37.60;;;;;;5151442;27;45483;-66
2023/12/19 08:38:30;;;;;;;2.50;1.77;;;18.50;37.40;;;;;;5161048;27;46707;-66
2023/12/19 08:40:57;;;;;;;1.95;1.50;;;18.60;37.40;;;;;;5167117;27;45180;-66
2023/12/19 08:43:25;;;;;;;2.38;1.42;;;18.70;37.20;;;;;;5170709;27;45255;-66
2023/12/19 08:45:52;;;;;;;1.90;1.60;;;18.80;37.10;;;;;;5171061;27;45363;-66
2023/12/19 08:48:19;;;;;;;2.53;1.52;;;18.90;37.00;;;;;;5170571;27;45487;-66
2023/12/19 08:50:46;;;;;;;2.60;1.48;;;19.00;36.80;;;;;;5170669;27;45194;-65
2023/12/19 08:53:13;;;;;;;1.50;1.33;;;19.00;36.80;;;;;;5170579;27;45237;-66
2023/12/19 08:55:42;;;;;;;2.28;1.83;;;19.10;36.70;;;;;;5170823;27;45259;-66
2023/12/19 08:58:08;;;;;;;1.30;1.20;;;19.10;36.60;;;;;;5170509;27;45463;-66
2023/12/19 09:00:37;;;;;;;2.42;1.52;;;19.20;36.50;;;;;;5168076;27;45250;-66
2023/12/19 09:03:05;;;;;;;1.75;1.40;;;19.20;36.40;;;;;;5170174;27;45242;-68
2023/12/19 09:05:32;;;;;;;1.92;1.70;;;19.20;36.70;;;;;;5171023;27;45395;-72
2023/12/19 09:07:59;;;;;;;8.07;1.92;;;19.20;37.00;;;;;;5170791;27;46676;-71
2023/12/19 09:10:26;;;;;;;4.05;2.00;;;19.20;36.80;;;;;;5169309;27;45198;-72
2023/12/19 09:12:53;;;;;;;4.45;1.77;;;19.20;37.00;;;;;;5170598;27;45279;-67
2023/12/19 09:15:20;;;;;;;5.35;1.80;;;19.30;37.00;;;;;;5170875;27;45261;-69
2023/12/19 09:17:49;;;;;;;3.47;1.83;;;19.20;37.00;;;;;;5170370;27;45323;-67
2023/12/19 09:20:16;;;;;;;3.35;1.77;;;19.10;37.50;;;;;;5170548;27;45328;-66
2023/12/19 09:22:42;;;;;;;4.63;1.90;;;19.10;37.60;;;;;;5165192;27;45413;-66
2023/12/19 09:25:14;;;;;;;5.22;2.08;;;19.10;37.50;;;;;;5170688;27;45419;-65
2023/12/19 09:27:42;;;;;;;2.17;1.80;;;19.10;37.60;;;;;;5170284;27;47763;-69
2023/12/19 09:30:10;;;;;;;2.90;2.10;;;19.10;38.00;;;;;;5170107;27;45208;-68
2023/12/19 09:32:37;;;;;;;2.88;1.60;;;19.10;37.90;;;;;;5170286;27;45308;-63
2023/12/19 09:35:06;;;;;;;3.38;1.67;;;19.10;38.30;;;;;;5170339;27;45479;-65
2023/12/19 09:37:33;;;;;;;3.38;1.55;;;19.00;38.10;;;;;;5169483;27;45223;-62
2023/12/19 09:40:00;;;;;;;1.88;1.42;;;19.00;38.20;;;;;;5169556;27;45192;-69
2023/12/19 09:42:27;;;;;;;10.75;3.05;;;19.00;38.60;;;;;;5169851;27;45299;-65
2023/12/19 09:44:54;;;;;;;5.10;1.95;;;19.00;38.50;;;;;;5169833;27;45393;-62
2023/12/19 09:47:23;;;;;;;5.72;2.00;;;19.00;38.30;;;;;;5169756;27;47027;-67
2023/12/19 09:49:51;;;;;;;5.05;2.00;;;19.00;38.10;;;;;;5170401;27;45181;-66
2023/12/19 09:52:19;;;;;;;4.93;2.08;;;19.00;38.10;;;;;;5170128;27;45539;-66
2023/12/19 09:54:46;;;;;;;4.75;1.98;;;19.10;38.30;;;;;;5170131;27;45547;-67
2023/12/19 09:57:13;;;;;;;8.88;2.70;;;19.20;37.90;;;;;;5169354;27;46406;-66
2023/12/19 09:59:41;;;;;;;4.70;2.35;;;19.30;38.30;;;;;;5169640;27;45223;-64
2023/12/19 10:02:08;;;;;;;2.83;2.00;;;19.40;37.50;;;;;;5170077;27;45447;-66
2023/12/19 10:04:35;;;;;;;6.63;2.38;;;19.50;37.50;;;;;;5169805;27;45284;-63
2023/12/19 10:07:02;;;;;;;4.55;2.28;;;19.60;37.60;;;;;;5168979;27;47379;-67
2023/12/19 10:09:30;;;;;;;6.03;2.20;;;19.70;37.50;;;;;;5169417;27;45276;-66
2023/12/19 10:12:07;;;;;;;5.68;2.35;;;19.80;37.30;;;;;;5158800;27;45491;-66
2023/12/19 10:14:34;;;;;;;5.55;3.00;;;19.90;36.80;;;;;;5158767;27;45306;-66
2023/12/19 10:17:02;;;;;;;7.82;4.03;;;20.00;36.80;;;;;;5154904;27;45434;-66
2023/12/19 10:19:29;;;;;;;5.68;3.10;;;20.10;36.70;;;;;;5157909;27;45248;-66
2023/12/19 10:22:08;;;;;;;11.88;3.83;;;20.10;36.70;;;;;;5156582;27;45424;-65
2023/12/19 10:24:36;;;;;;;10.90;3.47;;;20.20;36.60;;;;;;5157286;27;45343;-66
2023/12/19 10:27:05;;;;;;;6.35;2.80;;;20.20;36.30;;;;;;5158154;27;46712;-66
2023/12/19 10:29:36;;;;;;;5.75;2.67;;;20.20;36.30;;;;;;5155930;27;45474;-67
2023/12/19 10:32:13;;;;;;;7.38;3.05;;;20.30;36.20;;;;;;5157231;27;45128;-65
2023/12/19 10:34:40;;;;;;;8.85;3.03;;;20.40;37.00;;;;;;5154417;27;45648;-64
2023/12/19 10:37:12;;;;;;;12.23;3.45;;;20.60;38.60;;;;;;5158682;27;45648;-70
2023/12/19 10:39:41;;;;;;;6.82;3.03;;;20.70;37.60;;;;;;5159878;27;45396;-73
2023/12/19 10:42:09;;;;;;;13.48;2.95;;;20.80;37.70;;;;;;5157471;27;45534;-68
2023/12/19 10:44:37;;;;;;;9.70;2.88;;;20.80;37.80;;;;;;5156236;27;45430;-67
2023/12/19 10:47:04;;;;;;;5.78;2.50;;;20.90;37.00;;;;;;5153308;27;46416;-65
2023/12/19 10:49:30;;;;;;;6.47;2.63;;;20.90;37.60;;;;;;5159547;27;45194;-67
2023/12/19 10:51:57;;;;;;;9.07;3.10;;;20.90;36.80;;;;;;5158462;27;45411;-69
2023/12/19 10:54:25;;;;;;;11.73;10.60;;;20.90;38.00;;;;;;5160349;27;45699;-70
2023/12/19 10:57:02;;;;;;;6.90;4.82;;;20.60;35.60;;;;;;5154372;27;45512;-71
2023/12/19 10:59:31;;;;;;;7.75;4.00;;;20.40;35.60;;;;;;5152158;27;45439;-67
2023/12/19 11:02:01;;;;;;;2.75;2.55;;;20.10;34.50;;;;;;5152314;27;45566;-64
2023/12/19 11:04:28;;;;;;;4.43;3.00;;;19.80;34.00;;;;;;5166878;27;45311;-64
2023/12/19 11:06:57;;;;;;;2.47;2.13;;;19.60;35.00;;;;;;5150669;27;45534;-67
2023/12/19 11:09:25;;;;;;;3.58;2.95;;;19.50;34.80;;;;;;5148130;27;45407;-65
2023/12/19 11:11:52;;;;;;;2.58;2.05;;;19.30;36.20;;;;;;5147900;27;45253;-65
2023/12/19 11:14:24;;;;;;;2.35;1.80;;;19.30;33.80;;;;;;5148007;27;45249;-65
2023/12/19 11:16:52;;;;;;;2.22;1.42;;;19.20;34.60;;;;;;5147506;27;46939;-65
2023/12/19 11:19:20;;;;;;;1.45;1.35;;;19.00;32.70;;;;;;5147756;27;45310;-64
2023/12/19 11:21:51;;;;;;;1.83;1.40;;;18.80;32.70;;;;;;5155740;27;45648;-65
2023/12/19 11:24:22;;;;;;;7.03;1.38;;;18.70;33.00;;;;;;5168809;27;45343;-67
2023/12/19 11:26:50;;;;;;;1.60;1.30;;;18.60;33.50;;;;;;5159829;27;47657;-64
2023/12/19 11:29:44;;;;;;;1.42;1.30;;;18.50;33.60;;;;;;5152917;27;45365;-66
2023/12/19 11:32:40;;;;;;;12.10;1.42;;;18.50;34.10;;;;;;5157221;27;45324;-66
2023/12/19 11:35:13;;;;;;;2.72;1.65;;;18.50;35.10;;;;;;5168419;27;45363;-68
2023/12/19 11:37:44;;;;;;;1.80;1.55;;;18.60;34.70;;;;;;5150392;27;45697;-64
2023/12/19 11:40:18;;;;;;;1.42;1.33;;;18.70;35.00;;;;;;5150532;27;45156;-66
2023/12/19 11:42:49;;;;;;;2.40;1.73;;;18.70;33.80;;;;;;5162314;27;45208;-66
2023/12/19 11:45:42;;;;;;;1.73;1.30;;;18.60;33.40;;;;;;5166193;27;45391;-66
2023/12/19 11:48:37;;;;;;;2.28;1.85;;;18.60;33.20;;;;;;5143780;27;46381;-66
2023/12/19 11:51:04;;;;;;;1.70;1.60;;;18.80;36.00;;;;;;5169803;27;45273;-67
2023/12/19 11:53:31;;;;;;;3.95;1.92;;;19.20;36.60;;;;;;5172573;27;45438;-68
2023/12/19 11:56:05;;;;;;;1.77;1.60;;;19.70;36.70;;;;;;5156016;27;45336;-67
2023/12/19 11:58:32;;;;;;;3.67;1.98;;;20.00;35.80;;;;;;5150306;27;45454;-64
2023/12/19 12:01:00;;;;;;;1.73;1.45;;;20.20;35.80;;;;;;5150119;27;45260;-62
2023/12/19 12:03:28;;;;;;;7.05;1.73;;;20.40;35.80;;;;;;5150021;27;45228;-67
2023/12/19 12:05:54;;;;;;;2.42;1.75;;;20.60;35.70;;;;;;5150419;27;45251;-69
2023/12/19 12:08:21;;;;;;;3.90;2.03;;;20.60;35.20;;;;;;5150476;27;46358;-65
2023/12/19 12:10:59;;;;;;;4.22;1.90;;;20.70;36.20;;;;;;5151411;27;45188;-65
2023/12/19 12:13:25;;;;;;;2.33;2.13;;;20.80;37.30;;;;;;5151161;27;45231;-64
2023/12/19 12:15:53;;;;;;;4.57;2.63;;;21.00;36.90;;;;;;5151218;27;45285;-67
2023/12/19 12:18:22;;;;;;;3.90;2.60;;;21.30;36.40;;;;;;5150291;27;45259;-67
2023/12/19 12:20:48;;;;;;;3.33;2.60;;;21.60;37.10;;;;;;5150916;27;45228;-67
2023/12/19 12:23:18;;;;;;;3.17;2.88;;;21.70;36.30;;;;;;5163216;27;45289;-68
2023/12/19 12:25:53;;;;;;;2.53;2.33;;;21.80;36.90;;;;;;5169036;27;45280;-69
2023/12/19 12:28:25;;;;;;;4.15;2.72;;;21.90;36.90;;;;;;5159724;27;45527;-68
2023/12/19 12:30:53;;;;;;;2.53;2.00;;;21.70;34.70;;;;;;5153556;27;46345;-67
2023/12/19 12:33:21;;;;;;;3.53;2.03;;;21.60;35.10;;;;;;5158109;27;45365;-67
2023/12/19 12:35:48;;;;;;;5.10;2.10;;;21.40;35.40;;;;;;5161834;27;45486;-65
2023/12/19 12:38:17;;;;;;;4.68;2.30;;;21.30;35.80;;;;;;5159555;27;46693;-66
2023/12/19 12:40:54;;;;;;;3.25;2.88;;;21.20;36.10;;;;;;5155797;27;45913;-71
2023/12/19 12:43:33;;;;;;;2.80;2.50;;;21.30;37.50;;;;;;5157835;27;45312;-65
2023/12/19 12:46:04;;;;;;;2.60;2.40;;;21.40;37.10;;;;;;5159069;27;45243;-66
2023/12/19 12:48:32;;;;;;;3.28;2.47;;;21.50;37.10;;;;;;5158656;27;46602;-67